Time;durP1;ratioP1;P1;durP2;ratioP2;P2;SDS_P1;SDS_P2;PMS_P1;PMS_P2;Temp;Humidity;BMP_temperature;BMP_pressure;BME280_temperature;BME280_humidity;BME280_pressure;Samples;Min_cycle;Max_cycle;Signal;HPM_P1;HPM_P2
2023/10/17 00:01:48;;;;;;;6.55;2.90;;;7.10;99.90;;;;;;5033849;28;20565;-81
2023/10/17 00:06:43;;;;;;;4.38;2.90;;;7.50;99.90;;;;;;5030489;28;20577;-79
2023/10/17 00:09:09;;;;;;;4.72;3.33;;;9.20;99.90;;;;;;5037098;28;20116;-79
2023/10/17 00:14:35;;;;;;;5.95;3.33;;;9.20;99.90;;;;;;4995622;28;20143;-81
2023/10/17 00:17:03;;;;;;;4.13;3.00;;;7.10;99.90;;;;;;5028262;28;20040;-81
2023/10/17 00:19:31;;;;;;;4.63;2.60;;;7.00;99.90;;;;;;5018135;28;20044;-80
2023/10/17 00:21:59;;;;;;;5.35;2.90;;;7.00;99.90;;;;;;5012600;28;20052;-81
2023/10/17 00:24:25;;;;;;;4.63;2.95;;;9.20;99.90;;;;;;5006955;28;20045;-80
2023/10/17 00:26:51;;;;;;;6.20;3.17;;;9.30;99.90;;;;;;5033569;28;20447;-81
2023/10/17 00:29:17;;;;;;;5.57;2.78;;;6.90;99.90;;;;;;5034308;28;20041;-80
2023/10/17 00:31:46;;;;;;;4.15;3.17;;;7.00;99.90;;;;;;5034571;28;21118;-78
2023/10/17 00:34:25;;;;;;;3.72;2.80;;;8.90;99.90;;;;;;5020394;28;20048;-80
2023/10/17 00:36:51;;;;;;;3.88;2.60;;;9.00;99.90;;;;;;5007634;28;20044;-79
2023/10/17 00:39:31;;;;;;;5.22;2.63;;;7.00;99.90;;;;;;5046256;28;20073;-78
2023/10/17 00:44:30;;;;;;;5.30;2.85;;;7.10;99.90;;;;;;5062543;28;20124;-80
2023/10/17 00:47:00;;;;;;;6.22;3.35;;;7.70;99.90;;;;;;5034140;28;20044;-80
2023/10/17 00:49:29;;;;;;;5.68;2.80;;;9.40;99.90;;;;;;5040307;28;20037;-79
2023/10/17 00:51:56;;;;;;;4.43;2.40;;;8.60;99.90;;;;;;5057097;28;20551;-80
2023/10/17 00:54:25;;;;;;;4.43;2.40;;;7.10;99.90;;;;;;5030571;28;20048;-80
2023/10/17 00:57:00;;;;;;;6.00;2.50;;;7.10;99.90;;;;;;5039080;28;20684;-80
2023/10/17 00:59:29;;;;;;;3.92;2.20;;;7.10;99.90;;;;;;5039614;28;20106;-81
2023/10/17 01:01:56;;;;;;;3.58;2.10;;;9.30;99.90;;;;;;5056005;28;20045;-80
2023/10/17 01:04:24;;;;;;;4.07;2.45;;;7.10;99.90;;;;;;5049073;28;20312;-81
2023/10/17 01:07:05;;;;;;;3.67;2.20;;;8.50;99.90;;;;;;5065211;28;20032;-80
2023/10/17 01:09:34;;;;;;;5.53;2.92;;;8.90;99.90;;;;;;5056442;28;20056;-79
2023/10/17 01:12:10;;;;;;;4.53;2.20;;;7.20;99.90;;;;;;5040217;28;20032;-81
2023/10/17 01:14:36;;;;;;;5.18;2.42;;;7.20;99.90;;;;;;5059777;28;20404;-80
2023/10/17 01:17:07;;;;;;;3.25;2.80;;;8.70;99.90;;;;;;5043405;28;20046;-81
2023/10/17 01:19:33;;;;;;;2.22;2.00;;;7.00;99.90;;;;;;5046202;28;20048;-81
2023/10/17 01:22:00;;;;;;;2.22;2.03;;;8.60;99.90;;;;;;5039922;28;20076;-81
2023/10/17 01:24:26;;;;;;;6.68;2.72;;;7.10;99.90;;;;;;5036202;28;20032;-79
2023/10/17 01:26:52;;;;;;;3.20;2.17;;;7.10;99.90;;;;;;5038507;28;20381;-80
2023/10/17 01:29:18;;;;;;;4.30;2.33;;;7.50;99.90;;;;;;5057232;28;20062;-79
2023/10/17 01:31:44;;;;;;;2.95;2.13;;;8.90;99.90;;;;;;5038337;28;20051;-78
2023/10/17 01:34:11;;;;;;;4.43;2.13;;;8.10;99.90;;;;;;5043269;28;20039;-80
2023/10/17 01:36:42;;;;;;;5.32;2.20;;;7.10;99.90;;;;;;5024020;28;20090;-79
2023/10/17 01:39:10;;;;;;;3.05;2.05;;;7.20;99.90;;;;;;5049881;28;20082;-79
2023/10/17 01:41:38;;;;;;;5.00;1.90;;;7.10;99.90;;;;;;5050928;28;20480;-79
2023/10/17 01:44:04;;;;;;;2.38;1.60;;;7.20;99.90;;;;;;5037978;28;20029;-80
2023/10/17 01:46:30;;;;;;;1.95;1.73;;;7.10;99.90;;;;;;5044372;28;20044;-79
2023/10/17 01:49:10;;;;;;;4.03;1.85;;;7.20;99.90;;;;;;5059115;28;20055;-80
2023/10/17 01:51:36;;;;;;;22.35;2.92;;;6.90;99.90;;;;;;5052184;28;20051;-79
2023/10/17 01:54:08;;;;;;;3.58;1.90;;;9.50;99.90;;;;;;5063308;28;20438;-80
2023/10/17 01:56:38;;;;;;;2.70;2.00;;;7.20;99.90;;;;;;5036525;28;20044;-78
2023/10/17 01:59:09;;;;;;;3.22;1.63;;;8.30;99.90;;;;;;5044185;28;20073;-80
2023/10/17 02:01:36;;;;;;;4.82;2.55;;;7.20;99.90;;;;;;5046760;28;20080;-79
2023/10/17 02:04:03;;;;;;;3.78;1.30;;;7.20;99.90;;;;;;5047466;28;20174;-80
2023/10/17 02:06:30;;;;;;;3.88;1.85;;;7.10;99.90;;;;;;5041913;28;20127;-79
2023/10/17 02:08:58;;;;;;;7.95;1.75;;;9.20;99.90;;;;;;5053092;28;20075;-78
2023/10/17 02:11:24;;;;;;;3.25;1.33;;;7.10;99.90;;;;;;5024919;28;20036;-79
2023/10/17 02:13:52;;;;;;;2.25;1.52;;;7.00;99.90;;;;;;5040849;28;20032;-78
2023/10/17 02:16:17;;;;;;;3.38;1.40;;;8.70;99.90;;;;;;5023361;28;20072;-80
2023/10/17 02:18:44;;;;;;;5.60;1.95;;;9.10;99.90;;;;;;5019259;28;20573;-80
2023/10/17 02:21:12;;;;;;;2.15;1.55;;;6.50;99.90;;;;;;5022188;28;20059;-80
2023/10/17 02:23:43;;;;;;;2.63;1.63;;;6.80;99.90;;;;;;5021750;28;20090;-79
2023/10/17 02:26:14;;;;;;;4.93;1.70;;;6.90;99.90;;;;;;5034036;28;20073;-78
2023/10/17 02:28:49;;;;;;;5.18;1.50;;;8.30;99.90;;;;;;5041377;28;20136;-79
2023/10/17 02:31:16;;;;;;;3.22;1.50;;;6.70;99.90;;;;;;5042152;28;20135;-80
2023/10/17 02:33:42;;;;;;;3.90;1.85;;;7.70;99.90;;;;;;5020636;28;20075;-79
2023/10/17 02:36:13;;;;;;;3.58;1.60;;;6.60;99.90;;;;;;5020150;28;20136;-79
2023/10/17 02:38:40;;;;;;;2.88;1.75;;;6.50;99.90;;;;;;5020104;28;20040;-79
2023/10/17 02:41:14;;;;;;;3.20;1.67;;;8.50;99.90;;;;;;5023829;28;20094;-79
2023/10/17 02:43:45;;;;;;;2.15;1.50;;;8.70;99.90;;;;;;5062216;28;20138;-79
2023/10/17 02:46:14;;;;;;;4.60;1.38;;;8.50;99.90;;;;;;5037581;28;20127;-79
2023/10/17 02:48:42;;;;;;;2.92;1.27;;;8.20;99.90;;;;;;5032523;28;20582;-80
2023/10/17 02:53:51;;;;;;;3.90;1.50;;;7.40;99.90;;;;;;5052539;28;20593;-78
2023/10/17 02:56:21;;;;;;;1.15;1.00;;;6.50;99.90;;;;;;5038232;28;20070;-79
2023/10/17 02:59:06;;;;;;;4.07;1.60;;;8.50;99.90;;;;;;5038828;28;20465;-81
2023/10/17 03:01:34;;;;;;;2.88;1.33;;;7.10;99.90;;;;;;5033832;28;20051;-79
2023/10/17 03:04:10;;;;;;;4.55;1.30;;;7.60;99.90;;;;;;5035409;28;20059;-79
2023/10/17 03:06:37;;;;;;;3.05;1.40;;;6.40;99.90;;;;;;5033112;28;20071;-79
2023/10/17 03:14:25;;;;;;;3.35;1.17;;;7.40;99.90;;;;;;5062083;28;20045;-79
2023/10/17 03:16:54;;;;;;;2.10;1.33;;;6.10;99.90;;;;;;5026803;28;20097;-80
2023/10/17 03:19:25;;;;;;;2.40;1.42;;;6.50;99.90;;;;;;5028884;28;20480;-79
2023/10/17 03:21:53;;;;;;;2.45;1.35;;;8.40;99.90;;;;;;5038191;28;20040;-80
2023/10/17 03:24:28;;;;;;;4.15;1.08;;;7.80;99.90;;;;;;5033732;28;20721;-80
2023/10/17 03:26:55;;;;;;;5.03;1.60;;;5.80;99.90;;;;;;5016990;28;20043;-79
2023/10/17 03:29:23;;;;;;;3.05;1.58;;;6.40;99.90;;;;;;5018886;28;20049;-80
2023/10/17 03:31:58;;;;;;;1.73;1.08;;;6.10;99.90;;;;;;5017540;28;20040;-81
2023/10/17 03:34:35;;;;;;;2.13;1.17;;;6.00;99.90;;;;;;5038113;28;20048;-80
2023/10/17 03:39:54;;;;;;;5.47;1.48;;;6.10;99.90;;;;;;5045075;28;20454;-80
2023/10/17 03:45:12;;;;;;;2.28;1.50;;;;;;;;;;5049935;28;20051;-79
2023/10/17 03:47:42;;;;;;;3.22;1.13;;;6.00;99.90;;;;;;5030305;28;20552;-80
2023/10/17 03:50:08;;;;;;;1.90;1.15;;;6.00;99.90;;;;;;5028792;28;20645;-79
2023/10/17 03:52:35;;;;;;;3.10;1.10;;;5.90;99.90;;;;;;5026684;28;20074;-80
2023/10/17 03:55:02;;;;;;;2.35;1.23;;;7.90;99.90;;;;;;5029591;28;20123;-80
2023/10/17 03:57:28;;;;;;;5.72;2.63;;;5.90;99.90;;;;;;5037080;28;20512;-80
2023/10/17 03:59:56;;;;;;;5.32;2.65;;;5.90;99.90;;;;;;5041448;28;20032;-80
2023/10/17 04:02:24;;;;;;;2.53;1.48;;;5.50;99.90;;;;;;5039294;28;20040;-80
2023/10/17 04:04:54;;;;;;;2.22;1.15;;;5.80;99.90;;;;;;5039619;28;20033;-80
2023/10/17 04:07:29;;;;;;;2.08;1.25;;;5.80;99.90;;;;;;5053739;28;20048;-81
2023/10/17 04:12:39;;;;;;;3.47;1.45;;;8.30;99.90;;;;;;5047506;28;20048;-80
2023/10/17 04:15:09;;;;;;;2.15;1.50;;;6.00;99.90;;;;;;5030268;28;20077;-79
2023/10/17 04:17:38;;;;;;;2.60;1.20;;;6.10;99.90;;;;;;5049430;28;20064;-80
2023/10/17 04:20:16;;;;;;;3.13;1.08;;;8.10;99.90;;;;;;5038130;28;20506;-79
2023/10/17 04:22:45;;;;;;;3.95;1.30;;;5.90;99.90;;;;;;5030875;28;20053;-78
2023/10/17 04:25:20;;;;;;;1.20;1.10;;;6.80;99.90;;;;;;5024132;28;20065;-79
2023/10/17 04:27:51;;;;;;;2.45;1.67;;;6.50;99.90;;;;;;5043461;28;20484;-79
2023/10/17 04:30:22;;;;;;;2.83;1.70;;;5.80;99.90;;;;;;5042588;28;20037;-80
2023/10/17 04:32:52;;;;;;;5.32;1.50;;;5.90;99.90;;;;;;5057514;28;20505;-79
2023/10/17 04:35:20;;;;;;;2.42;1.65;;;5.80;99.90;;;;;;5032255;28;20077;-78
2023/10/17 04:38:09;;;;;;;5.05;1.55;;;7.90;99.90;;;;;;5034276;28;20048;-78
2023/10/17 04:40:42;;;;;;;2.33;1.05;;;5.40;99.90;;;;;;5051710;28;20140;-78
2023/10/17 04:45:56;;;;;;;1.23;0.93;;;6.50;99.90;;;;;;5057876;28;20127;-79
2023/10/17 04:48:46;;;;;;;5.60;1.63;;;5.70;99.90;;;;;;5046251;28;20082;-80
2023/10/17 04:53:48;;;;;;;3.08;1.00;;;5.70;99.90;;;;;;5040593;28;20477;-80
2023/10/17 04:56:16;;;;;;;2.03;1.10;;;7.80;99.90;;;;;;5014675;28;20033;-78
2023/10/17 04:58:49;;;;;;;2.45;1.30;;;6.70;99.90;;;;;;5016762;28;20093;-79
2023/10/17 05:03:59;;;;;;;3.38;1.25;;;5.70;99.90;;;;;;5037663;28;20051;-79
2023/10/17 05:06:52;;;;;;;3.13;1.58;;;5.50;99.90;;;;;;5014940;28;20041;-80
2023/10/17 06:17:51;;;;;;;2.35;1.90;;;6.00;99.90;;;;;;5057296;28;20044;-79
2023/10/17 06:20:19;;;;;;;3.90;3.00;;;6.10;99.90;;;;;;5044913;28;20558;-79
2023/10/17 06:28:29;;;;;;;4.93;2.75;;;6.60;99.90;;;;;;5046334;28;20053;-79
2023/10/17 06:33:38;;;;;;;3.67;2.90;;;6.10;99.90;;;;;;5046272;28;20048;-79
2023/10/17 06:36:16;;;;;;;5.50;3.67;;;6.20;99.90;;;;;;5034847;28;20615;-80
2023/10/17 06:38:46;;;;;;;3.90;2.80;;;6.20;99.90;;;;;;5028685;28;20045;-80
2023/10/17 06:41:27;;;;;;;5.55;2.95;;;6.20;99.90;;;;;;5034819;28;20060;-77
2023/10/17 06:44:05;;;;;;;6.68;3.22;;;6.20;99.90;;;;;;5032413;28;20933;-78
2023/10/17 06:46:40;;;;;;;7.90;4.30;;;6.20;99.90;;;;;;5032208;28;20048;-79
2023/10/17 06:49:28;;;;;;;4.60;4.18;;;7.90;99.90;;;;;;5028171;28;20091;-79
2023/10/17 06:52:07;;;;;;;6.03;3.78;;;8.20;99.90;;;;;;5032232;28;20094;-80
2023/10/17 06:54:40;;;;;;;4.93;2.90;;;6.30;99.90;;;;;;5029793;28;20043;-79
2023/10/17 06:57:18;;;;;;;7.88;6.55;;;6.40;99.90;;;;;;5042555;28;20522;-80
2023/10/17 06:59:45;;;;;;;11.02;5.38;;;6.40;99.90;;;;;;5047484;28;20044;-78
2023/10/17 07:02:18;;;;;;;8.85;4.70;;;6.40;99.90;;;;;;5027674;28;20408;-80
2023/10/17 07:04:50;;;;;;;5.32;4.20;;;6.40;99.90;;;;;;5044192;28;20607;-78
2023/10/17 07:07:18;;;;;;;10.45;5.78;;;6.40;99.90;;;;;;5042447;28;20042;-78
2023/10/17 07:09:52;;;;;;;20.35;9.63;;;6.50;99.90;;;;;;5049109;28;20527;-79
2023/10/17 07:12:19;;;;;;;11.77;7.68;;;6.50;99.90;;;;;;5047757;28;20129;-78
2023/10/17 07:14:48;;;;;;;9.60;6.45;;;6.50;99.90;;;;;;5032387;28;20045;-77
2023/10/17 07:17:26;;;;;;;7.78;4.03;;;8.60;99.90;;;;;;5026830;28;20044;-79
2023/10/17 07:20:12;;;;;;;8.15;3.90;;;8.40;99.90;;;;;;5032500;28;20422;-80
2023/10/17 07:22:40;;;;;;;5.80;3.75;;;7.70;99.90;;;;;;5036944;28;20044;-78
2023/10/17 07:25:16;;;;;;;5.47;3.88;;;6.60;99.90;;;;;;5049489;28;20044;-78
2023/10/17 07:27:44;;;;;;;3.65;3.00;;;6.70;99.90;;;;;;5033590;28;20045;-79
2023/10/17 07:30:13;;;;;;;7.43;3.33;;;6.70;99.90;;;;;;5041725;28;20028;-79
2023/10/17 07:32:45;;;;;;;8.18;3.80;;;6.70;99.90;;;;;;5046643;28;20052;-79
2023/10/17 07:35:15;;;;;;;7.15;3.53;;;6.70;99.90;;;;;;5039630;28;20434;-79
2023/10/17 07:37:48;;;;;;;4.88;3.28;;;6.80;99.90;;;;;;5038059;28;20075;-79
2023/10/17 07:42:44;;;;;;;7.25;3.42;;;6.90;99.90;;;;;;5061849;28;20062;-79
2023/10/17 07:45:16;;;;;;;6.95;3.30;;;6.90;99.90;;;;;;5042220;28;20059;-79
2023/10/17 07:47:43;;;;;;;8.55;3.15;;;7.00;99.90;;;;;;5059304;28;20072;-79
2023/10/17 07:50:13;;;;;;;4.57;3.10;;;7.10;99.90;;;;;;5046024;28;20044;-80
2023/10/17 07:52:50;;;;;;;4.90;3.25;;;7.10;99.90;;;;;;5061902;28;20151;-79
2023/10/17 07:55:17;;;;;;;7.13;3.00;;;7.10;99.90;;;;;;5039628;28;20055;-79
2023/10/17 07:57:44;;;;;;;4.97;3.03;;;8.30;99.90;;;;;;5059700;28;20048;-79
2023/10/17 08:00:26;;;;;;;12.02;6.47;;;7.20;99.90;;;;;;5045814;28;20048;-79
2023/10/17 08:03:00;;;;;;;5.88;2.75;;;7.20;99.90;;;;;;5059475;28;20105;-79
2023/10/17 08:05:36;;;;;;;6.70;2.70;;;7.30;99.90;;;;;;5042329;28;20435;-79
2023/10/17 08:08:08;;;;;;;7.97;2.67;;;7.30;99.90;;;;;;5061070;28;20044;-79
2023/10/17 08:10:35;;;;;;;8.93;3.13;;;7.40;99.90;;;;;;5050173;28;20045;-79
2023/10/17 08:13:02;;;;;;;5.28;2.97;;;7.40;99.90;;;;;;5057083;28;20044;-79
2023/10/17 08:15:52;;;;;;;6.70;3.25;;;7.40;99.90;;;;;;5062835;28;20484;-79
2023/10/17 08:18:22;;;;;;;6.85;2.75;;;7.40;99.90;;;;;;5040419;28;20079;-79
2023/10/17 08:23:26;;;;;;;4.93;2.20;;;7.50;99.90;;;;;;5054033;28;20475;-79
2023/10/17 08:26:10;;;;;;;6.00;2.90;;;7.50;99.90;;;;;;5058542;28;20044;-80
2023/10/17 08:36:43;;;;;;;8.20;3.25;;;7.70;99.90;;;;;;5063719;28;20048;-79
2023/10/17 08:41:57;;;;;;;9.88;2.88;;;9.20;99.90;;;;;;5058264;28;20442;-79
2023/10/17 08:44:29;;;;;;;10.25;2.75;;;7.90;99.90;;;;;;5055027;28;20450;-79
2023/10/17 08:46:56;;;;;;;9.68;2.47;;;8.00;99.90;;;;;;5044593;28;20048;-79
2023/10/17 08:49:22;;;;;;;7.85;2.40;;;9.00;99.90;;;;;;5042738;28;20553;-79
2023/10/17 08:51:50;;;;;;;6.05;2.58;;;8.20;99.90;;;;;;5081679;28;20036;-79
2023/10/17 08:54:19;;;;;;;5.50;2.75;;;8.20;99.90;;;;;;5048172;28;20131;-79
2023/10/17 08:56:47;;;;;;;12.15;3.05;;;8.30;99.90;;;;;;5063675;28;20499;-79
2023/10/17 08:59:15;;;;;;;5.40;2.40;;;8.30;99.90;;;;;;5061529;28;20052;-79
2023/10/17 09:02:03;;;;;;;4.88;1.83;;;8.40;99.90;;;;;;5061985;28;20044;-79
2023/10/17 09:04:33;;;;;;;4.90;1.63;;;9.30;99.90;;;;;;5041207;28;20128;-79
2023/10/17 09:06:59;;;;;;;3.38;1.38;;;8.50;99.90;;;;;;5059234;28;20064;-78
2023/10/17 09:09:29;;;;;;;6.03;1.55;;;9.60;99.90;;;;;;5065373;28;20040;-79
2023/10/17 09:14:43;;;;;;;6.43;1.30;;;8.70;99.90;;;;;;5060214;28;20048;-79
2023/10/17 09:17:28;;;;;;;6.00;1.83;;;10.00;99.90;;;;;;5055757;28;20078;-78
2023/10/17 09:19:56;;;;;;;;;;;8.80;99.90;;;;;;5058193;28;20508;-79
2023/10/17 09:22:23;;;;;;;4.13;1.55;;;9.10;99.90;;;;;;5059095;28;19920;-79
2023/10/17 09:24:49;;;;;;;3.70;1.73;;;10.00;99.90;;;;;;5063597;28;20044;-79
2023/10/17 09:27:17;;;;;;;4.88;2.05;;;9.00;99.90;;;;;;5060318;28;20079;-80
2023/10/17 09:29:51;;;;;;;8.75;1.63;;;9.00;99.90;;;;;;5061871;28;20043;-79
2023/10/17 09:32:34;;;;;;;6.57;1.50;;;9.10;99.90;;;;;;5057638;28;20036;-79
2023/10/17 09:35:10;;;;;;;3.50;1.08;;;9.10;99.90;;;;;;5061345;28;20102;-79
2023/10/17 09:37:39;;;;;;;5.38;1.30;;;9.20;99.90;;;;;;5059907;28;20102;-78
2023/10/17 09:40:11;;;;;;;7.45;1.27;;;9.30;99.90;;;;;;5068116;28;20086;-79
2023/10/17 09:42:40;;;;;;;5.45;1.00;;;9.40;99.90;;;;;;5048035;28;20044;-79
2023/10/17 09:45:07;;;;;;;3.97;1.15;;;10.40;99.90;;;;;;5055862;28;20074;-79
2023/10/17 09:47:38;;;;;;;3.80;1.23;;;9.50;99.90;;;;;;5048111;28;20046;-79
2023/10/17 09:50:08;;;;;;;9.23;1.58;;;10.30;99.90;;;;;;5045640;28;20064;-79
2023/10/17 09:52:34;;;;;;;4.78;0.70;;;9.60;99.90;;;;;;5058859;28;20051;-79
2023/10/17 09:55:04;;;;;;;2.47;0.90;;;9.70;99.90;;;;;;5045349;28;20041;-79
2023/10/17 09:57:33;;;;;;;1.73;1.30;;;9.80;99.90;;;;;;5065337;28;20122;-80
2023/10/17 10:00:15;;;;;;;6.63;1.08;;;9.90;99.90;;;;;;5061222;28;20369;-79
2023/10/17 10:02:43;;;;;;;0.80;0.75;;;9.90;99.90;;;;;;5044088;28;20430;-79
2023/10/17 10:05:36;;;;;;;4.63;1.15;;;10.00;99.90;;;;;;5052262;28;20123;-79
2023/10/17 10:08:03;;;;;;;5.97;0.80;;;10.10;99.90;;;;;;5061764;28;20429;-79
2023/10/17 10:10:56;;;;;;;3.90;0.73;;;10.20;99.90;;;;;;5055957;28;20051;-79
2023/10/17 10:13:22;;;;;;;4.15;0.80;;;11.00;99.90;;;;;;5053836;28;20542;-79
2023/10/17 10:15:58;;;;;;;4.10;0.75;;;10.20;99.90;;;;;;5043012;28;20041;-79
2023/10/17 10:18:42;;;;;;;1.95;1.00;;;11.00;99.90;;;;;;5062492;28;20088;-79
2023/10/17 10:21:09;;;;;;;7.17;0.70;;;10.40;99.90;;;;;;5058453;28;20071;-79
2023/10/17 10:23:35;;;;;;;7.00;0.75;;;10.40;99.90;;;;;;5043646;28;20062;-79
2023/10/17 10:26:19;;;;;;;5.95;1.20;;;10.50;99.90;;;;;;5044350;28;20051;-79
2023/10/17 10:28:47;;;;;;;2.33;0.70;;;10.50;99.90;;;;;;5052577;28;20459;-79
2023/10/17 10:31:21;;;;;;;2.75;0.50;;;11.30;99.90;;;;;;5046750;28;20051;-79
2023/10/17 10:33:58;;;;;;;5.13;1.00;;;10.50;99.90;;;;;;5061682;28;20047;-79
2023/10/17 10:36:24;;;;;;;5.18;0.70;;;10.60;99.90;;;;;;5063622;28;20036;-79
2023/10/17 10:38:55;;;;;;;3.50;0.77;;;11.60;99.90;;;;;;5043048;28;20048;-78
2023/10/17 10:41:22;;;;;;;2.72;0.80;;;10.70;99.90;;;;;;5057892;28;20047;-79
2023/10/17 10:43:48;;;;;;;10.77;6.13;;;10.70;99.90;;;;;;5035258;28;20036;-79
2023/10/17 10:46:15;;;;;;;2.28;0.93;;;10.70;99.90;;;;;;5059929;28;20047;-79
2023/10/17 10:48:48;;;;;;;2.00;0.40;;;10.80;99.90;;;;;;5040127;28;20044;-79
2023/10/17 10:51:17;;;;;;;3.78;0.57;;;10.80;99.90;;;;;;5030662;28;20532;-79
2023/10/17 10:53:46;;;;;;;3.40;0.50;;;10.90;99.90;;;;;;5046863;28;20172;-78
2023/10/17 10:56:13;;;;;;;1.63;0.50;;;11.00;99.90;;;;;;5045459;28;20059;-80
2023/10/17 10:58:51;;;;;;;2.03;0.40;;;11.00;99.90;;;;;;5043297;28;20037;-79
2023/10/17 11:01:18;;;;;;;4.05;0.40;;;11.10;99.90;;;;;;5034711;28;20502;-79
2023/10/17 11:03:48;;;;;;;6.35;0.88;;;11.20;99.90;;;;;;5060727;28;20048;-79
2023/10/17 11:06:15;;;;;;;3.92;0.52;;;12.40;99.90;;;;;;5051199;28;20037;-79
2023/10/17 11:08:46;;;;;;;1.33;0.30;;;11.20;99.90;;;;;;5035287;28;20048;-79
2023/10/17 11:11:14;;;;;;;2.05;0.75;;;11.30;99.90;;;;;;5045036;28;20079;-79
2023/10/17 11:13:44;;;;;;;2.25;0.30;;;11.60;99.90;;;;;;5052056;28;20052;-79
2023/10/17 11:16:10;;;;;;;1.65;0.28;;;11.40;99.90;;;;;;5061052;28;20569;-79
2023/10/17 11:18:38;;;;;;;3.88;0.65;;;11.50;99.90;;;;;;5042400;28;20094;-79
2023/10/17 11:21:10;;;;;;;2.88;0.70;;;11.50;99.90;;;;;;5043248;28;20492;-78
2023/10/17 11:23:50;;;;;;;3.75;0.57;;;11.50;99.90;;;;;;5052326;28;20040;-79
2023/10/17 11:26:19;;;;;;;3.20;0.90;;;11.60;99.90;;;;;;5030742;28;20119;-79
2023/10/17 11:28:51;;;;;;;2.47;0.50;;;11.60;99.90;;;;;;5027842;28;20059;-79
2023/10/17 11:31:24;;;;;;;1.55;0.60;;;11.70;99.90;;;;;;5048305;28;20245;-79
2023/10/17 11:34:04;;;;;;;4.10;0.75;;;11.70;99.90;;;;;;5061146;28;20555;-79
2023/10/17 11:36:36;;;;;;;1.70;0.40;;;11.80;99.90;;;;;;5043314;28;20048;-79
2023/10/17 11:39:06;;;;;;;1.65;0.40;;;11.80;99.90;;;;;;5038383;28;20409;-79
2023/10/17 11:44:27;;;;;;;2.60;0.45;;;12.70;99.90;;;;;;5048797;28;20106;-79
2023/10/17 11:47:03;;;;;;;3.08;0.70;;;12.10;99.90;;;;;;5040073;28;20094;-78
2023/10/17 11:49:46;;;;;;;3.72;1.00;;;12.10;99.90;;;;;;5039417;28;20431;-79
2023/10/17 11:52:12;;;;;;;2.17;0.60;;;12.30;99.90;;;;;;5042870;28;20052;-78
2023/10/17 11:55:00;;;;;;;2.85;0.63;;;12.30;99.90;;;;;;5057603;28;20095;-79
2023/10/17 11:57:28;;;;;;;2.72;0.50;;;12.40;99.90;;;;;;5033782;28;20043;-78
2023/10/17 11:59:55;;;;;;;6.30;0.70;;;12.40;99.90;;;;;;5054490;28;20041;-78
2023/10/17 12:02:21;;;;;;;2.22;0.30;;;12.50;99.90;;;;;;5042437;28;20083;-78
2023/10/17 12:04:46;;;;;;;0.77;0.32;;;12.70;99.90;;;;;;5036698;28;20092;-78
2023/10/17 12:07:12;;;;;;;1.65;0.60;;;12.50;99.90;;;;;;5035868;28;20489;-79
2023/10/17 12:09:38;;;;;;;2.17;0.43;;;12.60;99.90;;;;;;5048269;28;20443;-78
2023/10/17 12:12:04;;;;;;;2.63;0.52;;;12.60;99.90;;;;;;5026587;28;20054;-80
2023/10/17 12:14:29;;;;;;;4.65;0.52;;;12.60;99.90;;;;;;5043203;28;20045;-83
2023/10/17 12:16:55;;;;;;;5.82;0.80;;;12.60;99.90;;;;;;5021170;28;20521;-82
2023/10/17 12:19:26;;;;;;;5.93;0.73;;;12.90;99.90;;;;;;5035581;28;20076;-79
2023/10/17 12:21:55;;;;;;;2.38;0.30;;;12.60;99.90;;;;;;5037422;28;20068;-78
2023/10/17 12:24:28;;;;;;;8.80;0.60;;;12.70;99.90;;;;;;5041616;28;20143;-81
2023/10/17 12:26:57;;;;;;;4.07;1.38;;;13.10;99.90;;;;;;5038660;28;20094;-81
2023/10/17 12:29:25;;;;;;;2.33;0.55;;;12.80;99.90;;;;;;5035191;28;20346;-78
2023/10/17 12:31:57;;;;;;;3.97;0.95;;;12.90;99.90;;;;;;5038809;28;20067;-78
2023/10/17 12:34:23;;;;;;;4.38;0.68;;;12.80;99.90;;;;;;5033528;28;20120;-79
2023/10/17 12:36:48;;;;;;;1.50;0.50;;;12.50;99.90;;;;;;5023167;28;20660;-79
2023/10/17 12:39:16;;;;;;;1.98;0.80;;;13.10;99.90;;;;;;5011202;28;20531;-80
2023/10/17 12:41:46;;;;;;;5.55;1.05;;;12.90;99.90;;;;;;5015541;28;20417;-79
2023/10/17 12:44:12;;;;;;;2.60;0.50;;;13.00;99.90;;;;;;5034409;28;21989;-79
2023/10/17 12:46:38;;;;;;;6.13;0.77;;;13.00;99.90;;;;;;5033369;28;20034;-79
2023/10/17 12:49:06;;;;;;;2.13;0.63;;;13.00;99.90;;;;;;5052153;28;20103;-79
2023/10/17 12:51:32;;;;;;;6.80;0.70;;;13.10;99.90;;;;;;5040970;28;20045;-79
2023/10/17 12:53:58;;;;;;;4.53;0.80;;;13.10;99.90;;;;;;5043988;28;20044;-78
2023/10/17 12:56:24;;;;;;;1.98;0.77;;;13.30;99.90;;;;;;5041283;28;20127;-79
2023/10/17 12:58:51;;;;;;;3.58;0.52;;;13.10;99.90;;;;;;5032912;28;20041;-79
2023/10/17 13:01:17;;;;;;;4.38;0.77;;;13.20;99.90;;;;;;5033463;28;20041;-79
2023/10/17 13:03:43;;;;;;;1.67;0.70;;;13.80;99.90;;;;;;5042973;28;20060;-80
2023/10/17 13:06:09;;;;;;;1.60;0.60;;;14.50;99.90;;;;;;5042530;28;20041;-79
2023/10/17 13:08:35;;;;;;;2.65;0.50;;;13.30;99.90;;;;;;5035893;28;20114;-79
2023/10/17 13:11:02;;;;;;;2.60;0.52;;;13.20;99.90;;;;;;5048307;28;20041;-79
2023/10/17 13:13:30;;;;;;;1.17;0.68;;;14.10;99.90;;;;;;5033219;28;20084;-77
2023/10/17 13:15:57;;;;;;;1.75;0.47;;;14.10;99.90;;;;;;5036121;28;20107;-78
2023/10/17 13:18:24;;;;;;;0.70;0.70;;;13.30;99.90;;;;;;5018668;28;20750;-78
2023/10/17 13:20:53;;;;;;;4.05;0.80;;;13.30;99.90;;;;;;5050647;28;20298;-79
2023/10/17 13:23:20;;;;;;;3.15;0.80;;;13.20;99.90;;;;;;5035030;28;20107;-79
2023/10/17 13:25:46;;;;;;;4.28;0.47;;;14.00;99.90;;;;;;5025895;28;20049;-76
2023/10/17 13:28:12;;;;;;;2.30;0.80;;;13.50;99.90;;;;;;5050824;28;20076;-78
2023/10/17 13:30:38;;;;;;;2.42;0.73;;;14.70;99.90;;;;;;5039565;28;20041;-78
2023/10/17 13:33:04;;;;;;;3.10;0.88;;;14.30;99.90;;;;;;5032662;28;20053;-77
2023/10/17 13:35:30;;;;;;;1.27;0.55;;;13.40;99.90;;;;;;5026416;28;20041;-78
2023/10/17 13:37:58;;;;;;;7.15;0.90;;;13.20;99.90;;;;;;5043741;28;20396;-77
2023/10/17 13:40:25;;;;;;;3.38;0.70;;;14.90;99.90;;;;;;5066390;28;20044;-78
2023/10/17 13:42:55;;;;;;;2.33;0.88;;;14.70;99.90;;;;;;5061441;28;20045;-77
2023/10/17 13:45:21;;;;;;;3.10;0.80;;;13.10;99.90;;;;;;5038864;28;20044;-78
2023/10/17 13:47:54;;;;;;;2.30;0.75;;;13.00;99.90;;;;;;5045675;28;20054;-77
2023/10/17 13:50:21;;;;;;;3.13;0.70;;;13.00;99.90;;;;;;5056889;28;20072;-77
2023/10/17 13:52:48;;;;;;;1.27;0.70;;;13.00;99.90;;;;;;5041627;28;20048;-77
2023/10/17 13:55:23;;;;;;;2.33;0.52;;;13.00;99.90;;;;;;5050713;28;20072;-76
2023/10/17 13:57:49;;;;;;;2.17;0.50;;;13.80;99.90;;;;;;5059817;28;20080;-76
2023/10/17 14:00:21;;;;;;;1.60;0.75;;;12.90;99.90;;;;;;5064694;28;20518;-75
2023/10/17 14:02:49;;;;;;;2.00;0.70;;;12.80;99.90;;;;;;5064043;28;20445;-76
2023/10/17 14:05:18;;;;;;;2.88;0.50;;;12.80;99.90;;;;;;5041112;28;20051;-77
2023/10/17 14:07:44;;;;;;;0.98;0.65;;;12.70;99.90;;;;;;5043902;28;20102;-77
2023/10/17 14:10:12;;;;;;;0.52;0.45;;;13.90;99.90;;;;;;5046372;28;20040;-76
2023/10/17 14:12:40;;;;;;;2.75;0.70;;;14.10;99.90;;;;;;5046947;28;20048;-76
2023/10/17 14:15:09;;;;;;;3.67;0.75;;;12.60;99.90;;;;;;5045218;28;20223;-76
2023/10/17 14:17:36;;;;;;;3.38;0.65;;;12.50;99.90;;;;;;5064169;28;20044;-76
2023/10/17 14:20:06;;;;;;;3.97;0.32;;;13.30;99.90;;;;;;5046716;28;20040;-77
2023/10/17 14:22:38;;;;;;;1.35;0.28;;;12.80;99.90;;;;;;5049387;28;20049;-77
2023/10/17 14:25:07;;;;;;;3.80;0.43;;;13.90;99.90;;;;;;5053407;28;20044;-78
2023/10/17 14:27:32;;;;;;;3.10;0.60;;;12.40;99.90;;;;;;5054150;28;20040;-78
2023/10/17 14:29:59;;;;;;;3.17;0.60;;;13.90;99.90;;;;;;5067595;28;20155;-78
2023/10/17 14:32:27;;;;;;;1.10;0.25;;;12.30;99.90;;;;;;5045254;28;20090;-77
2023/10/17 14:34:53;;;;;;;1.65;0.30;;;13.90;99.90;;;;;;5037555;28;20048;-77
2023/10/17 14:37:23;;;;;;;3.47;0.60;;;13.10;99.90;;;;;;5046439;28;20118;-78
2023/10/17 14:39:52;;;;;;;1.60;0.40;;;12.20;99.90;;;;;;5042023;28;20126;-78
2023/10/17 14:42:18;;;;;;;2.30;0.30;;;12.10;99.90;;;;;;5044599;28;20052;-77
2023/10/17 14:44:46;;;;;;;0.82;0.30;;;12.10;99.90;;;;;;5042434;28;20714;-79
2023/10/17 14:47:17;;;;;;;7.95;0.75;;;11.90;99.90;;;;;;5045918;28;20040;-78
2023/10/17 14:49:46;;;;;;;2.80;0.68;;;13.60;99.90;;;;;;5046608;28;20073;-78
2023/10/17 14:52:13;;;;;;;0.40;0.30;;;11.90;99.90;;;;;;5052886;28;20045;-77
2023/10/17 14:54:42;;;;;;;3.97;0.40;;;11.80;99.90;;;;;;5008646;28;20051;-77
2023/10/17 14:57:09;;;;;;;4.13;0.63;;;11.70;99.90;;;;;;5069571;28;20044;-77
2023/10/17 14:59:38;;;;;;;3.17;0.40;;;11.80;99.90;;;;;;5042131;28;20047;-79
2023/10/17 15:02:07;;;;;;;1.73;0.40;;;11.60;99.90;;;;;;5078781;28;20055;-79
2023/10/17 15:04:37;;;;;;;1.77;0.43;;;11.60;99.90;;;;;;5062926;28;20290;-78
2023/10/17 15:07:06;;;;;;;3.25;0.30;;;11.50;99.90;;;;;;5048067;28;20040;-78
2023/10/17 15:09:35;;;;;;;1.08;0.10;;;11.50;99.90;;;;;;5019420;28;20039;-78
2023/10/17 15:12:04;;;;;;;3.50;0.40;;;11.50;99.90;;;;;;5029979;28;20042;-77
2023/10/17 15:14:30;;;;;;;1.63;0.28;;;11.50;99.90;;;;;;5024347;28;20441;-77
2023/10/17 15:16:56;;;;;;;2.65;0.40;;;11.40;99.90;;;;;;5018707;28;20664;-77
2023/10/17 15:19:23;;;;;;;0.73;0.20;;;11.40;99.90;;;;;;5052581;28;20075;-77